sensor_id;sensor_type;location;lat;lon;timestamp;pressure;altitude;pressure_sealevel;temperature;humidity
45113;BME280;30873;53.908;27.576;2023-03-14T00:04:08;1003.4;;;7;79.4
45113;BME280;30873;53.908;27.576;2023-03-14T00:09:10;1003.5;;;7.1;79.4
45113;BME280;30873;53.908;27.576;2023-03-14T00:13:42;1003.4;;;7.1;79.3
45113;BME280;30873;53.908;27.576;2023-03-14T00:19:08;1003.2;;;7.1;78.9
45113;BME280;30873;53.908;27.576;2023-03-14T00:23:54;1003.2;;;7.2;78.8
45113;BME280;30873;53.908;27.576;2023-03-14T00:28:26;1003.2;;;7.2;78.9
45113;BME280;30873;53.908;27.576;2023-03-14T00:33:26;1003.1;;;7.2;78.6
45113;BME280;30873;53.908;27.576;2023-03-14T00:39:08;1003.2;;;7.2;78.6
45113;BME280;30873;53.908;27.576;2023-03-14T00:43:26;1003.2;;;7.2;78.4
45113;BME280;30873;53.908;27.576;2023-03-14T00:48:27;1003.1;;;7.2;78.3
45113;BME280;30873;53.908;27.576;2023-03-14T00:54:08;1003;;;7.2;78.1
45113;BME280;30873;53.908;27.576;2023-03-14T00:58:26;1002.9;;;7.3;77.9
45113;BME280;30873;53.908;27.576;2023-03-14T01:03:50;1002.9;;;7.3;77.7
45113;BME280;30873;53.908;27.576;2023-03-14T01:08:55;1002.8;;;7.3;77.3
45113;BME280;30873;53.908;27.576;2023-03-14T01:13:45;1002.8;;;7.3;77.2
45113;BME280;30873;53.908;27.576;2023-03-14T01:18:54;1002.9;;;7.3;77.1
45113;BME280;30873;53.908;27.576;2023-03-14T01:23:26;1002.9;;;7.4;77
45113;BME280;30873;53.908;27.576;2023-03-14T01:29:08;1002.7;;;7.4;76.9
45113;BME280;30873;53.908;27.576;2023-03-14T01:34:03;1002.6;;;7.4;76.8
45113;BME280;30873;53.908;27.576;2023-03-14T01:39:09;1002.6;;;7.4;76.9
45113;BME280;30873;53.908;27.576;2023-03-14T01:43:49;1002.6;;;7.4;76.9
45113;BME280;30873;53.908;27.576;2023-03-14T01:49:10;1002.5;;;7.3;76.9
45113;BME280;30873;53.908;27.576;2023-03-14T01:53:27;1002.6;;;7.3;76.8
45113;BME280;30873;53.908;27.576;2023-03-14T01:58:54;1002.6;;;7.4;76.8
45113;BME280;30873;53.908;27.576;2023-03-14T02:03:50;1002.6;;;7.4;76.6
45113;BME280;30873;53.908;27.576;2023-03-14T02:09:03;1002.6;;;7.4;76.3
45113;BME280;30873;53.908;27.576;2023-03-14T02:14:02;1002.6;;;7.4;75.9
45113;BME280;30873;53.908;27.576;2023-03-14T02:18:40;1002.6;;;7.4;75.6
45113;BME280;30873;53.908;27.576;2023-03-14T02:23:53;1002.6;;;7.4;75.2
45113;BME280;30873;53.908;27.576;2023-03-14T02:29:09;1002.6;;;7.4;74.9
45113;BME280;30873;53.908;27.576;2023-03-14T02:34:08;1002.7;;;7.4;74.8
45113;BME280;30873;53.908;27.576;2023-03-14T02:38:37;1002.7;;;7.4;74.5
45113;BME280;30873;53.908;27.576;2023-03-14T02:43:52;1002.7;;;7.4;74.3
45113;BME280;30873;53.908;27.576;2023-03-14T02:48:55;1002.7;;;7.5;74.2
45113;BME280;30873;53.908;27.576;2023-03-14T02:53:33;1002.8;;;7.5;74
45113;BME280;30873;53.908;27.576;2023-03-14T02:58:44;1002.8;;;7.4;74
45113;BME280;30873;53.908;27.576;2023-03-14T03:03:54;1002.8;;;7.4;74.1
45113;BME280;30873;53.908;27.576;2023-03-14T03:09:09;1002.8;;;7.4;74.3
45113;BME280;30873;53.908;27.576;2023-03-14T03:14:08;1002.9;;;7.4;74.5
45113;BME280;30873;53.908;27.576;2023-03-14T03:18:30;1003;;;7.4;74.7
45113;BME280;30873;53.908;27.576;2023-03-14T03:24:09;1003;;;7.4;74.7
45113;BME280;30873;53.908;27.576;2023-03-14T03:28:55;1003;;;7.4;74.8
45113;BME280;30873;53.908;27.576;2023-03-14T03:33:37;1002.9;;;7.4;74.8
45113;BME280;30873;53.908;27.576;2023-03-14T03:38:39;1002.9;;;7.4;74.7
45113;BME280;30873;53.908;27.576;2023-03-14T03:44:03;1002.9;;;7.4;74.4
45113;BME280;30873;53.908;27.576;2023-03-14T03:48:31;1002.8;;;7.4;74.1
45113;BME280;30873;53.908;27.576;2023-03-14T03:53:55;1002.7;;;7.4;73.7
45113;BME280;30873;53.908;27.576;2023-03-14T03:59:09;1002.6;;;7.4;73.5
45113;BME280;30873;53.908;27.576;2023-03-14T04:03:27;1002.6;;;7.4;73.2
45113;BME280;30873;53.908;27.576;2023-03-14T04:09:09;1002.5;;;7.4;72.9
45113;BME280;30873;53.908;27.576;2023-03-14T04:13:40;1002.3;;;7.4;72.6
45113;BME280;30873;53.908;27.576;2023-03-14T04:18:36;1002.3;;;7.4;72.3
45113;BME280;30873;53.908;27.576;2023-03-14T04:23:55;1002.2;;;7.4;72
45113;BME280;30873;53.908;27.576;2023-03-14T04:28:27;1002.3;;;7.5;71.7
45113;BME280;30873;53.908;27.576;2023-03-14T04:34:09;1002.3;;;7.5;71.2
45113;BME280;30873;53.908;27.576;2023-03-14T04:39:03;1002.3;;;7.6;70.7
45113;BME280;30873;53.908;27.576;2023-03-14T04:43:47;1002.3;;;7.5;70.3
45113;BME280;30873;53.908;27.576;2023-03-14T04:48:49;1002.1;;;7.6;70.1
45113;BME280;30873;53.908;27.576;2023-03-14T04:54:09;1001.9;;;7.6;69.8
45113;BME280;30873;53.908;27.576;2023-03-14T04:58:35;1001.9;;;7.6;69.7
45113;BME280;30873;53.908;27.576;2023-03-14T05:03:53;1001.8;;;7.7;69.3
45113;BME280;30873;53.908;27.576;2023-03-14T05:08:47;1001.8;;;7.7;69.1
45113;BME280;30873;53.908;27.576;2023-03-14T05:14:03;1001.7;;;7.8;68.9
45113;BME280;30873;53.908;27.576;2023-03-14T05:19:03;1001.9;;;7.8;68.3
45113;BME280;30873;53.908;27.576;2023-03-14T05:23:41;1001.9;;;7.9;67.9
45113;BME280;30873;53.908;27.576;2023-03-14T05:28:37;1002;;;7.8;67.5
45113;BME280;30873;53.908;27.576;2023-03-14T05:34:07;1001.9;;;7.8;67.4
45113;BME280;30873;53.908;27.576;2023-03-14T05:39:07;1001.7;;;7.9;67.4
45113;BME280;30873;53.908;27.576;2023-03-14T05:43:27;1001.8;;;8.1;67
45113;BME280;30873;53.908;27.576;2023-03-14T05:48:51;1001.9;;;8.2;66.6
45113;BME280;30873;53.908;27.576;2023-03-14T05:53:49;1001.8;;;8.3;66.3
45113;BME280;30873;53.908;27.576;2023-03-14T05:58:39;1001.9;;;8.4;65.8
45113;BME280;30873;53.908;27.576;2023-03-14T06:03:27;1002.1;;;8.5;65.6
45113;BME280;30873;53.908;27.576;2023-03-14T06:08:29;1002.2;;;8.5;65.4
45113;BME280;30873;53.908;27.576;2023-03-14T06:14:09;1002.3;;;8.5;65.2
45113;BME280;30873;53.908;27.576;2023-03-14T06:19:09;1002.4;;;8.6;65.3
45113;BME280;30873;53.908;27.576;2023-03-14T06:23:41;1002.4;;;8.7;65.2
45113;BME280;30873;53.908;27.576;2023-03-14T06:29:09;1002.5;;;8.7;65.1
45113;BME280;30873;53.908;27.576;2023-03-14T06:33:55;1002.5;;;8.8;64.9
45113;BME280;30873;53.908;27.576;2023-03-14T06:38:27;1002.5;;;8.8;64.5
45113;BME280;30873;53.908;27.576;2023-03-14T06:43:49;1002.4;;;8.8;64.1
45113;BME280;30873;53.908;27.576;2023-03-14T06:49:03;1002.4;;;8.8;64
45113;BME280;30873;53.908;27.576;2023-03-14T06:53:37;1002.5;;;8.8;63.8
45113;BME280;30873;53.908;27.576;2023-03-14T06:58:53;1002.5;;;8.8;63.4
45113;BME280;30873;53.908;27.576;2023-03-14T07:04:05;1002.5;;;8.8;63.3
45113;BME280;30873;53.908;27.576;2023-03-14T07:08:37;1002.4;;;8.9;63
45113;BME280;30873;53.908;27.576;2023-03-14T07:14:09;1002.3;;;9;62.9
45113;BME280;30873;53.908;27.576;2023-03-14T07:18:27;1002.3;;;9.2;62.4
45113;BME280;30873;53.908;27.576;2023-03-14T07:23:49;1002.3;;;9.3;61.9
45113;BME280;30873;53.908;27.576;2023-03-14T07:28:55;1002.2;;;9.5;61.5
45113;BME280;30873;53.908;27.576;2023-03-14T07:33:41;1002.1;;;10;60.8
45113;BME280;30873;53.908;27.576;2023-03-14T07:38:37;1002;;;10.5;59.7
45113;BME280;30873;53.908;27.576;2023-03-14T07:44:09;1002;;;10.7;58.7
45113;BME280;30873;53.908;27.576;2023-03-14T07:49:09;1001.9;;;10.8;58.2
45113;BME280;30873;53.908;27.576;2023-03-14T07:53:47;1001.8;;;11;57.8
45113;BME280;30873;53.908;27.576;2023-03-14T07:59:01;1001.8;;;11.1;57.7
45113;BME280;30873;53.908;27.576;2023-03-14T08:04:09;1001.8;;;11;58
45113;BME280;30873;53.908;27.576;2023-03-14T08:09:07;1001.8;;;10.9;57.8
45113;BME280;30873;53.908;27.576;2023-03-14T08:13:39;1001.6;;;10.7;58.1
45113;BME280;30873;53.908;27.576;2023-03-14T08:18:49;1001.6;;;11;58.1
45113;BME280;30873;53.908;27.576;2023-03-14T08:24:01;1001.7;;;11.3;57.4
45113;BME280;30873;53.908;27.576;2023-03-14T08:28:35;1001.7;;;11.8;56.2
45113;BME280;30873;53.908;27.576;2023-03-14T08:33:35;1001.8;;;12.1;55.6
45113;BME280;30873;53.908;27.576;2023-03-14T08:39:05;1001.7;;;12.3;54.6
45113;BME280;30873;53.908;27.576;2023-03-14T08:44:05;1001.7;;;12.6;54
45113;BME280;30873;53.908;27.576;2023-03-14T08:48:27;1001.7;;;12.9;52.9
45113;BME280;30873;53.908;27.576;2023-03-14T08:54:01;1001.6;;;13;52.6
45113;BME280;30873;53.908;27.576;2023-03-14T08:58:51;1001.5;;;13.4;51.4
45113;BME280;30873;53.908;27.576;2023-03-14T09:03:27;1001.4;;;13.5;51
45113;BME280;30873;53.908;27.576;2023-03-14T09:08:49;1001.4;;;13.5;50.9
45113;BME280;30873;53.908;27.576;2023-03-14T09:13:55;1001.4;;;13.6;50.2
45113;BME280;30873;53.908;27.576;2023-03-14T09:19:09;1001.5;;;13.7;49.5
45113;BME280;30873;53.908;27.576;2023-03-14T09:24:09;1001.5;;;14.2;48.2
45113;BME280;30873;53.908;27.576;2023-03-14T09:28:37;1001.4;;;14.1;47.9
45113;BME280;30873;53.908;27.576;2023-03-14T09:34:09;1001.5;;;14.2;47.8
45113;BME280;30873;53.908;27.576;2023-03-14T09:38:43;1001.6;;;14.2;47.7
45113;BME280;30873;53.908;27.576;2023-03-14T09:43:37;1001.5;;;14;47.9
45113;BME280;30873;53.908;27.576;2023-03-14T09:48:49;1001.6;;;13.4;49.1
45113;BME280;30873;53.908;27.576;2023-03-14T09:54:03;1001.4;;;12.9;50.1
45113;BME280;30873;53.908;27.576;2023-03-14T09:58:27;1001.3;;;13.2;50.5
45113;BME280;30873;53.908;27.576;2023-03-14T10:03:55;1001.3;;;13.9;49.5
45113;BME280;30873;53.908;27.576;2023-03-14T10:08:29;1001.2;;;15.6;45.8
45113;BME280;30873;53.908;27.576;2023-03-14T10:13:27;1001.2;;;14.9;46.3
45113;BME280;30873;53.908;27.576;2023-03-14T10:19:10;1001.2;;;14.2;47.4
45113;BME280;30873;53.908;27.576;2023-03-14T10:23:51;1001.1;;;14.1;47.8
45113;BME280;30873;53.908;27.576;2023-03-14T10:28:38;1001.2;;;16.5;44.6
45113;BME280;30873;53.908;27.576;2023-03-14T10:33:58;1001;;;18.6;41.1
45113;BME280;30873;53.908;27.576;2023-03-14T10:38:41;1000.9;;;17.2;41.7
45113;BME280;30873;53.908;27.576;2023-03-14T10:43:37;1000.8;;;16.2;42.8
45113;BME280;30873;53.908;27.576;2023-03-14T10:49:04;1000.8;;;15.3;44.1
45113;BME280;30873;53.908;27.576;2023-03-14T10:54:12;1000.8;;;14.9;45.1
45113;BME280;30873;53.908;27.576;2023-03-14T10:59:03;1000.7;;;14.6;46.1
45113;BME280;30873;53.908;27.576;2023-03-14T11:03:39;1000.7;;;14.5;46
45113;BME280;30873;53.908;27.576;2023-03-14T11:09:10;1000.7;;;14.5;46.2
45113;BME280;30873;53.908;27.576;2023-03-14T11:14:13;1000.6;;;14.9;45.7
45113;BME280;30873;53.908;27.576;2023-03-14T11:18:35;1000.5;;;16.6;43.1
45113;BME280;30873;53.908;27.576;2023-03-14T11:23:49;1000.3;;;17.5;41.4
45113;BME280;30873;53.908;27.576;2023-03-14T11:29:11;1000.2;;;17.6;41
45113;BME280;30873;53.908;27.576;2023-03-14T11:33:54;1000.2;;;17.4;41.2
45113;BME280;30873;53.908;27.576;2023-03-14T11:38:46;1000.1;;;20.4;36.9
45113;BME280;30873;53.908;27.576;2023-03-14T11:43:51;1000;;;22.4;33.8
45113;BME280;30873;53.908;27.576;2023-03-14T11:49:11;999.8;;;24;31.7
45113;BME280;30873;53.908;27.576;2023-03-14T11:53:34;999.7;;;24.7;30.4
45113;BME280;30873;53.908;27.576;2023-03-14T11:58:39;999.7;;;24.8;29.9
45113;BME280;30873;53.908;27.576;2023-03-14T12:04:11;999.6;;;25.1;29.3
45113;BME280;30873;53.908;27.576;2023-03-14T12:08:30;999.6;;;25.1;29.1
45113;BME280;30873;53.908;27.576;2023-03-14T12:13:49;999.5;;;24.9;28.9
45113;BME280;30873;53.908;27.576;2023-03-14T12:18:55;999.3;;;25.3;28.6
45113;BME280;30873;53.908;27.576;2023-03-14T12:23:49;999.3;;;25.9;28.1
45113;BME280;30873;53.908;27.576;2023-03-14T12:29:11;999.4;;;24.9;28.5
45113;BME280;30873;53.908;27.576;2023-03-14T12:33:41;999.3;;;24.8;28.3
45113;BME280;30873;53.908;27.576;2023-03-14T12:39:12;999.1;;;25.6;27.4
45113;BME280;30873;53.908;27.576;2023-03-14T12:43:55;999.1;;;25.1;27.6
45113;BME280;30873;53.908;27.576;2023-03-14T12:48:27;999;;;23.4;29.8
45113;BME280;30873;53.908;27.576;2023-03-14T12:54:04;999;;;24.8;28.4
45113;BME280;30873;53.908;27.576;2023-03-14T12:58:38;999;;;24.8;28.4
45113;BME280;30873;53.908;27.576;2023-03-14T13:03:35;998.8;;;26.4;26.3
45113;BME280;30873;53.908;27.576;2023-03-14T13:08:55;998.7;;;26.5;26.3
45113;BME280;30873;53.908;27.576;2023-03-14T13:14:09;998.5;;;26.3;26.4
45113;BME280;30873;53.908;27.576;2023-03-14T13:18:28;998.4;;;26.6;25.9
45113;BME280;30873;53.908;27.576;2023-03-14T13:24:20;998.3;;;26.4;25.9
45113;BME280;30873;53.908;27.576;2023-03-14T13:28:41;998.4;;;22.9;29.6
45113;BME280;30873;53.908;27.576;2023-03-14T13:33:27;998.2;;;21.6;31.1
45113;BME280;30873;53.908;27.576;2023-03-14T13:38:55;998.3;;;20;33.5
45113;BME280;30873;53.908;27.576;2023-03-14T13:43:31;998.2;;;19.9;34.3
45113;BME280;30873;53.908;27.576;2023-03-14T13:48:40;998.1;;;20.9;32.7
45113;BME280;30873;53.908;27.576;2023-03-14T13:53:57;998;;;20.6;33
45113;BME280;30873;53.908;27.576;2023-03-14T13:59:20;998.1;;;20.2;33.6
45113;BME280;30873;53.908;27.576;2023-03-14T14:03:49;998.1;;;20.3;33.5
45113;BME280;30873;53.908;27.576;2023-03-14T14:08:39;998.2;;;19.7;34.1
45113;BME280;30873;53.908;27.576;2023-03-14T14:14:10;998.1;;;18.7;35.7
45113;BME280;30873;53.908;27.576;2023-03-14T14:19:11;998;;;18.2;36.6
45113;BME280;30873;53.908;27.576;2023-03-14T14:23:49;998.1;;;17.9;37.1
45113;BME280;30873;53.908;27.576;2023-03-14T14:28:37;998.1;;;17.5;37.7
45113;BME280;30873;53.908;27.576;2023-03-14T14:34:17;998.1;;;17.3;38.2
45113;BME280;30873;53.908;27.576;2023-03-14T14:38:57;998.1;;;17;38.5
45113;BME280;30873;53.908;27.576;2023-03-14T14:43:27;998.1;;;16.7;39
45113;BME280;30873;53.908;27.576;2023-03-14T14:48:41;998.1;;;16.5;39.5
45113;BME280;30873;53.908;27.576;2023-03-14T14:54:12;998.1;;;16.2;40.1
45113;BME280;30873;53.908;27.576;2023-03-14T14:58:27;998.1;;;15.9;40.8
45113;BME280;30873;53.908;27.576;2023-03-14T15:04:04;998.1;;;15.8;41.3
45113;BME280;30873;53.908;27.576;2023-03-14T15:09:11;998;;;15.7;41.5
45113;BME280;30873;53.908;27.576;2023-03-14T15:13:27;998;;;15.6;41.7
45113;BME280;30873;53.908;27.576;2023-03-14T15:18:49;997.9;;;15.5;42.1
45113;BME280;30873;53.908;27.576;2023-03-14T15:23:57;998;;;15.5;42.3
45113;BME280;30873;53.908;27.576;2023-03-14T15:28:51;998;;;15.4;42.5
45113;BME280;30873;53.908;27.576;2023-03-14T15:33:55;998;;;15.3;42.6
45113;BME280;30873;53.908;27.576;2023-03-14T15:38:27;998;;;15.3;42.6
45113;BME280;30873;53.908;27.576;2023-03-14T15:44:11;998.1;;;15.2;42.7
45113;BME280;30873;53.908;27.576;2023-03-14T15:49:05;998;;;15.1;43
45113;BME280;30873;53.908;27.576;2023-03-14T15:54:11;998;;;15;43.2
45113;BME280;30873;53.908;27.576;2023-03-14T15:58:51;998;;;15;43.5
45113;BME280;30873;53.908;27.576;2023-03-14T16:04:11;998.1;;;14.9;43.8
45113;BME280;30873;53.908;27.576;2023-03-14T16:08:55;998.1;;;14.8;44
45113;BME280;30873;53.908;27.576;2023-03-14T16:13:57;998.1;;;14.7;44.1
45113;BME280;30873;53.908;27.576;2023-03-14T16:18:49;998.2;;;14.6;44.1
45113;BME280;30873;53.908;27.576;2023-03-14T16:23:37;998.3;;;14.5;44.4
45113;BME280;30873;53.908;27.576;2023-03-14T16:28:51;998.3;;;14.5;44.6
45113;BME280;30873;53.908;27.576;2023-03-14T16:33:39;998.4;;;14.4;44.7
45113;BME280;30873;53.908;27.576;2023-03-14T16:38:42;998.4;;;14.3;44.7
45113;BME280;30873;53.908;27.576;2023-03-14T16:43:59;998.4;;;14.3;44.7
45113;BME280;30873;53.908;27.576;2023-03-14T16:48:27;998.5;;;14.2;44.6
45113;BME280;30873;53.908;27.576;2023-03-14T16:53:43;998.6;;;14.2;44.6
45113;BME280;30873;53.908;27.576;2023-03-14T16:59:05;998.6;;;14.1;44.8
45113;BME280;30873;53.908;27.576;2023-03-14T17:04:11;998.5;;;14;44.8
45113;BME280;30873;53.908;27.576;2023-03-14T17:08:51;998.5;;;14;45
45113;BME280;30873;53.908;27.576;2023-03-14T17:13:49;998.5;;;13.8;45.3
45113;BME280;30873;53.908;27.576;2023-03-14T17:19:13;998.5;;;13.8;45.5
45113;BME280;30873;53.908;27.576;2023-03-14T17:24:13;998.5;;;13.7;45.7
45113;BME280;30873;53.908;27.576;2023-03-14T17:28:49;998.5;;;13.6;45.8
45113;BME280;30873;53.908;27.576;2023-03-14T17:33:27;998.5;;;13.5;46
45113;BME280;30873;53.908;27.576;2023-03-14T17:39:13;998.5;;;13.4;46.3
45113;BME280;30873;53.908;27.576;2023-03-14T17:43:39;998.5;;;13.4;46.6
45113;BME280;30873;53.908;27.576;2023-03-14T17:48:27;998.5;;;13.4;46.6
45113;BME280;30873;53.908;27.576;2023-03-14T17:53:41;998.5;;;13.3;46.9
45113;BME280;30873;53.908;27.576;2023-03-14T17:59:13;998.4;;;13.2;47.1
45113;BME280;30873;53.908;27.576;2023-03-14T18:03:35;998.4;;;13.1;47.2
45113;BME280;30873;53.908;27.576;2023-03-14T18:08:35;998.4;;;13.1;47.2
45113;BME280;30873;53.908;27.576;2023-03-14T18:14:13;998.4;;;13.1;47.3
45113;BME280;30873;53.908;27.576;2023-03-14T18:18:37;998.4;;;13.1;47.2
45113;BME280;30873;53.908;27.576;2023-03-14T18:23:47;998.3;;;13.1;47.3
45113;BME280;30873;53.908;27.576;2023-03-14T18:28:57;998.4;;;13;47.4
45113;BME280;30873;53.908;27.576;2023-03-14T18:33:27;998.4;;;13;47.4
45113;BME280;30873;53.908;27.576;2023-03-14T18:38:35;998.4;;;13;47.5
45113;BME280;30873;53.908;27.576;2023-03-14T18:43:49;998.5;;;13;47.4
45113;BME280;30873;53.908;27.576;2023-03-14T18:49:11;998.5;;;13;47.4
45113;BME280;30873;53.908;27.576;2023-03-14T18:54:03;998.4;;;12.9;47.6
45113;BME280;30873;53.908;27.576;2023-03-14T18:59:11;998.5;;;12.9;47.8
45113;BME280;30873;53.908;27.576;2023-03-14T19:03:57;998.5;;;12.9;47.8
45113;BME280;30873;53.908;27.576;2023-03-14T19:09:12;998.5;;;12.8;47.9
45113;BME280;30873;53.908;27.576;2023-03-14T19:13:55;998.4;;;12.8;48
45113;BME280;30873;53.908;27.576;2023-03-14T19:18:57;998.5;;;12.7;48.1
45113;BME280;30873;53.908;27.576;2023-03-14T19:23:47;998.5;;;12.7;48.1
45113;BME280;30873;53.908;27.576;2023-03-14T19:28:47;998.5;;;12.7;48.2
45113;BME280;30873;53.908;27.576;2023-03-14T19:34:03;998.6;;;12.7;48.1
45113;BME280;30873;53.908;27.576;2023-03-14T19:38:41;998.6;;;12.7;48.2
45113;BME280;30873;53.908;27.576;2023-03-14T19:43:27;998.6;;;12.8;48.1
45113;BME280;30873;53.908;27.576;2023-03-14T19:49:11;998.7;;;12.7;48.2
45113;BME280;30873;53.908;27.576;2023-03-14T19:54:11;998.7;;;12.7;48.3
45113;BME280;30873;53.908;27.576;2023-03-14T19:58:36;998.8;;;12.7;48.5
45113;BME280;30873;53.908;27.576;2023-03-14T20:04:03;998.8;;;12.7;48.5
45113;BME280;30873;53.908;27.576;2023-03-14T20:08:56;998.8;;;12.7;48.5
45113;BME280;30873;53.908;27.576;2023-03-14T20:13:27;998.8;;;12.7;48.6
45113;BME280;30873;53.908;27.576;2023-03-14T20:18:47;998.8;;;12.7;48.7
45113;BME280;30873;53.908;27.576;2023-03-14T20:23:57;998.8;;;12.6;48.8
45113;BME280;30873;53.908;27.576;2023-03-14T20:29:11;998.8;;;12.5;48.9
45113;BME280;30873;53.908;27.576;2023-03-14T20:34:11;998.8;;;12.5;49.1
45113;BME280;30873;53.908;27.576;2023-03-14T20:38:41;998.9;;;12.4;49.2
45113;BME280;30873;53.908;27.576;2023-03-14T20:44:11;998.9;;;12.3;49.5
45113;BME280;30873;53.908;27.576;2023-03-14T20:48:55;999;;;12.3;49.6
45113;BME280;30873;53.908;27.576;2023-03-14T20:53:35;999;;;12.2;49.8
45113;BME280;30873;53.908;27.576;2023-03-14T20:58:49;999;;;12.2;49.8
45113;BME280;30873;53.908;27.576;2023-03-14T21:04:09;999.1;;;12.3;49.9
45113;BME280;30873;53.908;27.576;2023-03-14T21:08:41;999;;;12.3;49.9
45113;BME280;30873;53.908;27.576;2023-03-14T21:13:49;998.9;;;12.3;49.8
45113;BME280;30873;53.908;27.576;2023-03-14T21:19:11;998.9;;;12.2;50
45113;BME280;30873;53.908;27.576;2023-03-14T21:23:27;999;;;12.3;49.9
45113;BME280;30873;53.908;27.576;2023-03-14T21:28:27;999;;;12.2;50
45113;BME280;30873;53.908;27.576;2023-03-14T21:34:09;999.1;;;12.1;50.2
45113;BME280;30873;53.908;27.576;2023-03-14T21:38:35;999.1;;;12;50.4
45113;BME280;30873;53.908;27.576;2023-03-14T21:43:49;999.1;;;11.9;50.6
45113;BME280;30873;53.908;27.576;2023-03-14T21:48:35;999.1;;;11.9;50.6
45113;BME280;30873;53.908;27.576;2023-03-14T21:54:11;999.1;;;11.9;50.5
45113;BME280;30873;53.908;27.576;2023-03-14T21:59:03;999.2;;;11.8;50.6
45113;BME280;30873;53.908;27.576;2023-03-14T22:04:11;999.3;;;11.8;50.7
45113;BME280;30873;53.908;27.576;2023-03-14T22:08:49;999.3;;;11.8;50.7
45113;BME280;30873;53.908;27.576;2023-03-14T22:14:11;999.4;;;11.8;50.9
45113;BME280;30873;53.908;27.576;2023-03-14T22:18:35;999.4;;;11.8;50.9
45113;BME280;30873;53.908;27.576;2023-03-14T22:23:57;999.4;;;11.7;51
45113;BME280;30873;53.908;27.576;2023-03-14T22:28:47;999.4;;;11.7;51
45113;BME280;30873;53.908;27.576;2023-03-14T22:34:03;999.4;;;11.7;51.2
45113;BME280;30873;53.908;27.576;2023-03-14T22:39:03;999.5;;;11.7;51.1
45113;BME280;30873;53.908;27.576;2023-03-14T22:43:57;999.5;;;11.6;51.1
45113;BME280;30873;53.908;27.576;2023-03-14T22:48:49;999.5;;;11.6;51.3
45113;BME280;30873;53.908;27.576;2023-03-14T22:54:11;999.5;;;11.6;51.2
45113;BME280;30873;53.908;27.576;2023-03-14T22:59:11;999.5;;;11.6;51.3
45113;BME280;30873;53.908;27.576;2023-03-14T23:03:27;999.6;;;11.7;51.1
45113;BME280;30873;53.908;27.576;2023-03-14T23:09:03;999.7;;;11.6;51
45113;BME280;30873;53.908;27.576;2023-03-14T23:13:55;999.7;;;11.6;51.1
45113;BME280;30873;53.908;27.576;2023-03-14T23:19:03;999.7;;;11.6;51.1
45113;BME280;30873;53.908;27.576;2023-03-14T23:23:35;999.7;;;11.6;51.2
45113;BME280;30873;53.908;27.576;2023-03-14T23:28:57;999.8;;;11.6;51.2
45113;BME280;30873;53.908;27.576;2023-03-14T23:34:11;999.8;;;11.6;51.3
45113;BME280;30873;53.908;27.576;2023-03-14T23:39:11;999.8;;;11.5;51.2
45113;BME280;30873;53.908;27.576;2023-03-14T23:43:42;999.9;;;11.5;51.3
45113;BME280;30873;53.908;27.576;2023-03-14T23:49:11;999.9;;;11.5;51.2
45113;BME280;30873;53.908;27.576;2023-03-14T23:53:55;999.9;;;11.6;51.2
45113;BME280;30873;53.908;27.576;2023-03-14T23:58:35;999.9;;;11.5;51.2
